Forside
METAR-TAF:

METAR-TAF

Lufthavne :

Ufa, Rusland

Breddekreds: 54-43-48N, længdekreds: 055-55-48E, højde: 137 m

Aktuelle vejr

Denne rapport blev lavet for 17 minutter siden, kl. 12:00 UTC
Vind 4 kt fra sydsydvest
Temperatur -4°C
Fugtighed 46%
Tryk 1039 hPa
Sigt 10 km eller mere
ingen skyer under 1500m og ingen cumulonimbus

METAR: UWUU 141200Z 20002MPS CAVOK M04/M14 Q1039 R14R/0///60 NOSIG RMK QFE768/1025

Tid: 17:17 (12:17 UTC)

Vejrudsigter

Denne rapport blev lavet for 1 time og 24 minutter siden, kl. 10:53 UTC
Foreløbig gælder fra 14 på 12 UTC til 15 på 12 UTC
Vind 6 kt fra syd med vindstød på up til 16 kt
Sigt 10 km eller mere
Brudte skyer i en højde af 3000 ft
Midlertidig
fra 14 på 12 UTC til 15 på 12 UTC
Vind 12 kt fra sydvest med vindstød på up til 21 kt

TAF: UWUU 141053Z 1412/1512 19003G08MPS 9999 BKN030 TEMPO 1412/1512 23006G11MPS

Vejrobservationer og prognoser fra mere end 4000 lufthavne (METAR og TAF).

De gule og røde prikker repræsenterer de meteorologiske stationer.

Flyt musen over at se navnet på stationen.

Så klik over at se vejr observationer og prognoser.

At skifte det kort: Klik på de grønne knapper med et sort kors for at zoome ind; på den grønne knap med en bindestreg for at zoome ud; eller på de grønne pile for tilstødende kort.


METAR-TAF: